sensor_id;sensor_type;location;lat;lon;timestamp;pressure;altitude;pressure_sealevel;temperature;humidity
69037;BME280;58547;51.690;5.186;2022-07-21T00:01:56;101767.81;;;19.81;76.39
69037;BME280;58547;51.690;5.186;2022-07-21T00:04:21;101756.72;;;19.76;76.38
69037;BME280;58547;51.690;5.186;2022-07-21T00:06:47;101757.69;;;19.75;77.11
69037;BME280;58547;51.690;5.186;2022-07-21T00:09:14;101755.06;;;19.75;76.72
69037;BME280;58547;51.690;5.186;2022-07-21T00:11:40;101771.53;;;19.79;76.99
69037;BME280;58547;51.690;5.186;2022-07-21T00:14:08;101765.41;;;19.90;76.45
69037;BME280;58547;51.690;5.186;2022-07-21T00:16:34;101770.22;;;19.96;76.03
69037;BME280;58547;51.690;5.186;2022-07-21T00:19:00;101755.28;;;19.95;76.29
69037;BME280;58547;51.690;5.186;2022-07-21T00:21:27;101749.03;;;19.85;76.92
69037;BME280;58547;51.690;5.186;2022-07-21T00:23:52;101744.94;;;19.80;76.84
69037;BME280;58547;51.690;5.186;2022-07-21T00:26:17;101746.16;;;19.88;76.62
69037;BME280;58547;51.690;5.186;2022-07-21T00:28:43;101757.91;;;19.95;75.98
69037;BME280;58547;51.690;5.186;2022-07-21T00:31:08;101762.88;;;19.88;76.51
69037;BME280;58547;51.690;5.186;2022-07-21T00:33:33;101769.69;;;20.02;75.85
69037;BME280;58547;51.690;5.186;2022-07-21T00:35:59;101767.53;;;20.07;75.70
69037;BME280;58547;51.690;5.186;2022-07-21T00:38:24;101762.13;;;19.97;76.00
69037;BME280;58547;51.690;5.186;2022-07-21T00:40:50;101762.00;;;19.65;77.29
69037;BME280;58547;51.690;5.186;2022-07-21T00:43:15;101760.06;;;19.56;78.06
69037;BME280;58547;51.690;5.186;2022-07-21T00:45:40;101780.03;;;19.60;77.84
69037;BME280;58547;51.690;5.186;2022-07-21T00:48:06;101777.44;;;19.71;77.28
69037;BME280;58547;51.690;5.186;2022-07-21T00:50:31;101767.78;;;19.70;77.38
69037;BME280;58547;51.690;5.186;2022-07-21T00:52:57;101770.06;;;19.75;77.00
69037;BME280;58547;51.690;5.186;2022-07-21T00:55:23;101761.78;;;19.79;77.06
69037;BME280;58547;51.690;5.186;2022-07-21T00:57:50;101761.31;;;19.74;77.55
69037;BME280;58547;51.690;5.186;2022-07-21T01:00:23;101769.84;;;19.67;77.59
69037;BME280;58547;51.690;5.186;2022-07-21T01:02:49;101767.53;;;19.62;77.57
69037;BME280;58547;51.690;5.186;2022-07-21T01:05:15;101754.75;;;19.56;78.36
69037;BME280;58547;51.690;5.186;2022-07-21T01:07:42;101749.25;;;19.59;78.01
69037;BME280;58547;51.690;5.186;2022-07-21T01:10:09;101754.53;;;19.59;77.97
69037;BME280;58547;51.690;5.186;2022-07-21T01:12:35;101751.88;;;19.48;78.40
69037;BME280;58547;51.690;5.186;2022-07-21T01:15:00;101741.75;;;19.41;78.73
69037;BME280;58547;51.690;5.186;2022-07-21T01:17:26;101738.63;;;19.48;78.22
69037;BME280;58547;51.690;5.186;2022-07-21T01:19:52;101741.88;;;19.29;79.65
69037;BME280;58547;51.690;5.186;2022-07-21T01:22:17;101734.66;;;19.31;79.51
69037;BME280;58547;51.690;5.186;2022-07-21T01:24:43;101735.28;;;19.23;79.96
69037;BME280;58547;51.690;5.186;2022-07-21T01:27:08;101740.66;;;19.21;79.95
69037;BME280;58547;51.690;5.186;2022-07-21T01:29:33;101732.88;;;19.31;79.64
69037;BME280;58547;51.690;5.186;2022-07-21T01:31:59;101739.38;;;19.38;79.03
69037;BME280;58547;51.690;5.186;2022-07-21T01:34:24;101745.25;;;19.19;80.03
69037;BME280;58547;51.690;5.186;2022-07-21T01:36:50;101745.84;;;19.23;79.83
69037;BME280;58547;51.690;5.186;2022-07-21T01:39:15;101737.06;;;19.23;79.76
69037;BME280;58547;51.690;5.186;2022-07-21T01:41:59;101739.84;;;19.32;79.19
69037;BME280;58547;51.690;5.186;2022-07-21T01:44:25;101753.31;;;19.29;79.42
69037;BME280;58547;51.690;5.186;2022-07-21T01:46:51;101732.84;;;19.09;80.56
69037;BME280;58547;51.690;5.186;2022-07-21T01:49:19;101745.34;;;19.07;80.51
69037;BME280;58547;51.690;5.186;2022-07-21T01:51:44;101746.53;;;19.14;80.46
69037;BME280;58547;51.690;5.186;2022-07-21T01:54:10;101748.19;;;19.04;80.94
69037;BME280;58547;51.690;5.186;2022-07-21T01:56:37;101744.09;;;18.99;81.09
69037;BME280;58547;51.690;5.186;2022-07-21T01:59:04;101743.63;;;18.94;81.56
69037;BME280;58547;51.690;5.186;2022-07-21T02:01:30;101731.59;;;18.90;81.37
69037;BME280;58547;51.690;5.186;2022-07-21T02:04:00;101741.59;;;18.98;81.15
69037;BME280;58547;51.690;5.186;2022-07-21T02:06:26;101738.34;;;19.06;81.08
69037;BME280;58547;51.690;5.186;2022-07-21T02:08:52;101724.66;;;19.00;80.84
69037;BME280;58547;51.690;5.186;2022-07-21T02:11:18;101725.78;;;18.85;81.86
69037;BME280;58547;51.690;5.186;2022-07-21T02:13:45;101726.66;;;18.86;81.92
69037;BME280;58547;51.690;5.186;2022-07-21T02:16:10;101745.03;;;18.87;81.99
69037;BME280;58547;51.690;5.186;2022-07-21T02:18:36;101737.13;;;18.74;82.66
69037;BME280;58547;51.690;5.186;2022-07-21T02:21:02;101726.66;;;18.73;83.24
69037;BME280;58547;51.690;5.186;2022-07-21T02:23:28;101724.34;;;18.81;82.43
69037;BME280;58547;51.690;5.186;2022-07-21T02:25:54;101739.63;;;18.89;82.27
69037;BME280;58547;51.690;5.186;2022-07-21T02:28:20;101744.34;;;18.96;81.80
69037;BME280;58547;51.690;5.186;2022-07-21T02:30:45;101733.06;;;19.06;81.61
69037;BME280;58547;51.690;5.186;2022-07-21T02:33:11;101739.97;;;18.84;82.75
69037;BME280;58547;51.690;5.186;2022-07-21T02:35:37;101726.53;;;18.63;83.59
69037;BME280;58547;51.690;5.186;2022-07-21T02:38:03;101730.75;;;18.66;83.59
69037;BME280;58547;51.690;5.186;2022-07-21T02:40:29;101723.84;;;18.52;84.34
69037;BME280;58547;51.690;5.186;2022-07-21T02:42:54;101709.78;;;18.51;84.33
69037;BME280;58547;51.690;5.186;2022-07-21T02:45:20;101713.25;;;18.52;84.83
69037;BME280;58547;51.690;5.186;2022-07-21T02:47:49;101715.31;;;18.48;85.08
69037;BME280;58547;51.690;5.186;2022-07-21T02:50:16;101719.88;;;18.46;85.27
69037;BME280;58547;51.690;5.186;2022-07-21T02:52:41;101723.63;;;18.55;84.57
69037;BME280;58547;51.690;5.186;2022-07-21T02:55:07;101722.94;;;18.64;84.34
69037;BME280;58547;51.690;5.186;2022-07-21T02:57:33;101721.34;;;18.61;84.61
69037;BME280;58547;51.690;5.186;2022-07-21T02:59:58;101711.63;;;18.62;84.67
69037;BME280;58547;51.690;5.186;2022-07-21T03:02:23;101711.13;;;18.57;84.69
69037;BME280;58547;51.690;5.186;2022-07-21T03:04:49;101706.78;;;18.56;84.80
69037;BME280;58547;51.690;5.186;2022-07-21T03:07:14;101700.69;;;18.55;84.48
69037;BME280;58547;51.690;5.186;2022-07-21T03:09:39;101703.16;;;18.46;85.28
69037;BME280;58547;51.690;5.186;2022-07-21T03:12:05;101710.69;;;18.39;85.41
69037;BME280;58547;51.690;5.186;2022-07-21T03:14:30;101711.13;;;18.33;85.75
69037;BME280;58547;51.690;5.186;2022-07-21T03:16:55;101710.84;;;18.25;86.17
69037;BME280;58547;51.690;5.186;2022-07-21T03:19:22;101710.38;;;18.19;86.69
69037;BME280;58547;51.690;5.186;2022-07-21T03:21:48;101712.31;;;18.29;85.85
69037;BME280;58547;51.690;5.186;2022-07-21T03:24:13;101717.41;;;18.32;85.66
69037;BME280;58547;51.690;5.186;2022-07-21T03:26:38;101723.50;;;18.32;85.94
69037;BME280;58547;51.690;5.186;2022-07-21T03:29:04;101721.72;;;18.33;85.55
69037;BME280;58547;51.690;5.186;2022-07-21T03:31:29;101718.75;;;18.37;85.55
69037;BME280;58547;51.690;5.186;2022-07-21T03:33:54;101722.69;;;18.32;85.12
69037;BME280;58547;51.690;5.186;2022-07-21T03:36:19;101735.38;;;18.27;85.73
69037;BME280;58547;51.690;5.186;2022-07-21T03:38:47;101730.41;;;18.22;86.57
69037;BME280;58547;51.690;5.186;2022-07-21T03:41:13;101739.19;;;18.23;86.40
69037;BME280;58547;51.690;5.186;2022-07-21T03:43:38;101735.50;;;18.12;86.95
69037;BME280;58547;51.690;5.186;2022-07-21T03:46:03;101733.94;;;18.10;87.22
69037;BME280;58547;51.690;5.186;2022-07-21T03:48:29;101731.50;;;18.19;87.13
69037;BME280;58547;51.690;5.186;2022-07-21T03:50:54;101728.41;;;18.26;85.84
69037;BME280;58547;51.690;5.186;2022-07-21T03:53:19;101722.78;;;18.30;83.91
69037;BME280;58547;51.690;5.186;2022-07-21T03:55:44;101719.66;;;18.25;86.29
69037;BME280;58547;51.690;5.186;2022-07-21T03:58:11;101713.28;;;18.28;85.99
69037;BME280;58547;51.690;5.186;2022-07-21T04:00:40;101703.50;;;18.41;85.14
69037;BME280;58547;51.690;5.186;2022-07-21T04:03:06;101706.38;;;18.38;85.19
69037;BME280;58547;51.690;5.186;2022-07-21T04:05:32;101715.19;;;18.26;85.61
69037;BME280;58547;51.690;5.186;2022-07-21T04:07:58;101720.41;;;18.14;85.57
69037;BME280;58547;51.690;5.186;2022-07-21T04:10:27;101717.75;;;18.14;85.99
69037;BME280;58547;51.690;5.186;2022-07-21T04:12:54;101727.50;;;18.14;86.18
69037;BME280;58547;51.690;5.186;2022-07-21T04:15:20;101735.94;;;18.06;86.01
69037;BME280;58547;51.690;5.186;2022-07-21T04:17:46;101732.13;;;18.10;86.45
69037;BME280;58547;51.690;5.186;2022-07-21T04:20:12;101732.13;;;18.10;85.95
69037;BME280;58547;51.690;5.186;2022-07-21T04:22:39;101732.56;;;18.17;85.09
69037;BME280;58547;51.690;5.186;2022-07-21T04:25:05;101744.47;;;18.23;85.26
69037;BME280;58547;51.690;5.186;2022-07-21T04:27:31;101739.84;;;18.13;85.41
69037;BME280;58547;51.690;5.186;2022-07-21T04:29:56;101733.50;;;18.16;85.39
69037;BME280;58547;51.690;5.186;2022-07-21T04:32:22;101732.13;;;18.23;84.02
69037;BME280;58547;51.690;5.186;2022-07-21T04:34:47;101737.72;;;18.18;85.27
69037;BME280;58547;51.690;5.186;2022-07-21T04:37:12;101735.75;;;18.09;85.91
69037;BME280;58547;51.690;5.186;2022-07-21T04:39:38;101738.16;;;18.12;85.03
69037;BME280;58547;51.690;5.186;2022-07-21T04:42:03;101735.31;;;18.15;85.41
69037;BME280;58547;51.690;5.186;2022-07-21T04:44:28;101737.72;;;18.18;85.90
69037;BME280;58547;51.690;5.186;2022-07-21T04:46:53;101744.34;;;18.24;83.97
69037;BME280;58547;51.690;5.186;2022-07-21T04:49:19;101732.41;;;18.31;84.66
69037;BME280;58547;51.690;5.186;2022-07-21T04:51:44;101736.63;;;18.34;84.73
69037;BME280;58547;51.690;5.186;2022-07-21T04:54:09;101733.91;;;18.47;83.88
69037;BME280;58547;51.690;5.186;2022-07-21T04:56:39;101728.25;;;18.40;83.71
69037;BME280;58547;51.690;5.186;2022-07-21T04:59:04;101733.38;;;18.41;83.69
69037;BME280;58547;51.690;5.186;2022-07-21T05:01:29;101732.09;;;18.47;82.85
69037;BME280;58547;51.690;5.186;2022-07-21T05:03:54;101734.13;;;18.44;83.91
69037;BME280;58547;51.690;5.186;2022-07-21T05:06:20;101735.53;;;18.36;84.39
69037;BME280;58547;51.690;5.186;2022-07-21T05:08:45;101735.94;;;18.43;84.16
69037;BME280;58547;51.690;5.186;2022-07-21T05:11:10;101731.63;;;18.42;84.10
69037;BME280;58547;51.690;5.186;2022-07-21T05:13:36;101729.13;;;18.52;82.77
69037;BME280;58547;51.690;5.186;2022-07-21T05:16:01;101733.34;;;18.54;82.83
69037;BME280;58547;51.690;5.186;2022-07-21T05:18:26;101730.31;;;18.48;83.40
69037;BME280;58547;51.690;5.186;2022-07-21T05:20:51;101728.72;;;18.45;83.72
69037;BME280;58547;51.690;5.186;2022-07-21T05:23:17;101723.00;;;18.51;83.50
69037;BME280;58547;51.690;5.186;2022-07-21T05:25:42;101721.25;;;18.63;82.88
69037;BME280;58547;51.690;5.186;2022-07-21T05:28:07;101723.56;;;18.68;82.75
69037;BME280;58547;51.690;5.186;2022-07-21T05:30:33;101725.25;;;18.69;82.63
69037;BME280;58547;51.690;5.186;2022-07-21T05:32:58;101720.81;;;18.69;82.97
69037;BME280;58547;51.690;5.186;2022-07-21T05:35:24;101717.69;;;18.75;82.73
69037;BME280;58547;51.690;5.186;2022-07-21T05:37:49;101712.28;;;18.77;82.90
69037;BME280;58547;51.690;5.186;2022-07-21T05:40:15;101709.88;;;18.74;82.75
69037;BME280;58547;51.690;5.186;2022-07-21T05:42:40;101704.09;;;18.69;83.10
69037;BME280;58547;51.690;5.186;2022-07-21T05:45:06;101713.91;;;18.79;82.75
69037;BME280;58547;51.690;5.186;2022-07-21T05:47:32;101711.44;;;18.76;82.77
69037;BME280;58547;51.690;5.186;2022-07-21T05:49:57;101728.06;;;18.78;82.52
69037;BME280;58547;51.690;5.186;2022-07-21T05:52:23;101720.13;;;18.78;82.93
69037;BME280;58547;51.690;5.186;2022-07-21T05:54:49;101726.78;;;18.95;82.11
69037;BME280;58547;51.690;5.186;2022-07-21T05:57:14;101717.56;;;19.12;81.26
69037;BME280;58547;51.690;5.186;2022-07-21T05:59:40;101715.06;;;19.22;80.95
69037;BME280;58547;51.690;5.186;2022-07-21T06:02:06;101710.00;;;19.30;80.98
69037;BME280;58547;51.690;5.186;2022-07-21T06:04:32;101718.44;;;19.35;80.64
69037;BME280;58547;51.690;5.186;2022-07-21T06:06:57;101713.16;;;19.47;79.93
69037;BME280;58547;51.690;5.186;2022-07-21T06:09:22;101708.94;;;19.55;79.45
69037;BME280;58547;51.690;5.186;2022-07-21T06:11:48;101711.81;;;19.64;79.86
69037;BME280;58547;51.690;5.186;2022-07-21T06:14:13;101708.22;;;19.65;79.78
69037;BME280;58547;51.690;5.186;2022-07-21T06:16:39;101711.13;;;19.73;78.99
69037;BME280;58547;51.690;5.186;2022-07-21T06:19:05;101709.78;;;19.78;78.59
69037;BME280;58547;51.690;5.186;2022-07-21T06:21:32;101714.97;;;19.69;79.22
69037;BME280;58547;51.690;5.186;2022-07-21T06:23:57;101713.16;;;19.69;79.96
69037;BME280;58547;51.690;5.186;2022-07-21T06:26:23;101710.41;;;19.82;79.45
69037;BME280;58547;51.690;5.186;2022-07-21T06:28:48;101710.28;;;19.72;79.54
69037;BME280;58547;51.690;5.186;2022-07-21T06:31:13;101712.56;;;19.77;79.33
69037;BME280;58547;51.690;5.186;2022-07-21T06:33:39;101711.22;;;19.83;79.81
69037;BME280;58547;51.690;5.186;2022-07-21T06:36:06;101714.09;;;19.91;79.29
69037;BME280;58547;51.690;5.186;2022-07-21T06:38:31;101711.94;;;19.96;78.76
69037;BME280;58547;51.690;5.186;2022-07-21T06:40:56;101723.38;;;19.96;78.83
69037;BME280;58547;51.690;5.186;2022-07-21T06:43:22;101730.13;;;19.89;78.74
69037;BME280;58547;51.690;5.186;2022-07-21T06:45:47;101738.44;;;19.73;79.13
69037;BME280;58547;51.690;5.186;2022-07-21T06:48:12;101729.25;;;19.66;79.14
69037;BME280;58547;51.690;5.186;2022-07-21T06:50:38;101730.59;;;19.49;80.56
69037;BME280;58547;51.690;5.186;2022-07-21T06:53:04;101732.16;;;19.40;81.03
69037;BME280;58547;51.690;5.186;2022-07-21T06:55:31;101734.06;;;19.27;81.59
69037;BME280;58547;51.690;5.186;2022-07-21T06:57:57;101743.69;;;19.17;82.33
69037;BME280;58547;51.690;5.186;2022-07-21T07:00:23;101745.84;;;19.23;81.85
69037;BME280;58547;51.690;5.186;2022-07-21T07:02:48;101742.00;;;19.27;82.42
69037;BME280;58547;51.690;5.186;2022-07-21T07:05:14;101747.06;;;19.30;82.01
69037;BME280;58547;51.690;5.186;2022-07-21T07:07:40;101754.03;;;19.31;83.29
69037;BME280;58547;51.690;5.186;2022-07-21T07:10:06;101750.66;;;19.29;83.64
69037;BME280;58547;51.690;5.186;2022-07-21T07:12:31;101747.78;;;19.32;84.51
69037;BME280;58547;51.690;5.186;2022-07-21T07:14:57;101753.94;;;18.97;86.13
69037;BME280;58547;51.690;5.186;2022-07-21T07:17:22;101753.94;;;18.86;87.85
69037;BME280;58547;51.690;5.186;2022-07-21T07:19:48;101760.88;;;18.87;87.79
69037;BME280;58547;51.690;5.186;2022-07-21T07:22:14;101757.50;;;18.85;88.14
69037;BME280;58547;51.690;5.186;2022-07-21T07:24:39;101754.56;;;18.77;88.86
69037;BME280;58547;51.690;5.186;2022-07-21T07:27:05;101754.56;;;18.77;89.60
69037;BME280;58547;51.690;5.186;2022-07-21T07:29:31;101755.16;;;18.69;88.51
69037;BME280;58547;51.690;5.186;2022-07-21T07:31:57;101755.50;;;18.65;91.66
69037;BME280;58547;51.690;5.186;2022-07-21T07:34:23;101758.06;;;18.53;90.60
69037;BME280;58547;51.690;5.186;2022-07-21T07:36:48;101754.22;;;18.46;91.53
69037;BME280;58547;51.690;5.186;2022-07-21T07:39:14;101756.41;;;18.52;91.73
69037;BME280;58547;51.690;5.186;2022-07-21T07:41:41;101758.31;;;18.50;91.14
69037;BME280;58547;51.690;5.186;2022-07-21T07:44:07;101752.78;;;18.53;92.98
69037;BME280;58547;51.690;5.186;2022-07-21T07:46:33;101756.41;;;18.52;92.19
69037;BME280;58547;51.690;5.186;2022-07-21T07:48:59;101752.34;;;18.59;91.25
69037;BME280;58547;51.690;5.186;2022-07-21T07:51:24;101753.25;;;18.47;91.33
69037;BME280;58547;51.690;5.186;2022-07-21T07:53:53;101759.81;;;18.41;91.64
69037;BME280;58547;51.690;5.186;2022-07-21T07:56:19;101756.13;;;18.44;91.24
69037;BME280;58547;51.690;5.186;2022-07-21T07:58:44;101759.88;;;18.29;93.31
69037;BME280;58547;51.690;5.186;2022-07-21T08:01:09;101763.88;;;18.34;91.56
69037;BME280;58547;51.690;5.186;2022-07-21T08:03:35;101760.72;;;18.29;93.83
69037;BME280;58547;51.690;5.186;2022-07-21T08:06:01;101756.50;;;18.27;93.70
69037;BME280;58547;51.690;5.186;2022-07-21T08:08:31;101760.38;;;18.34;94.98
69037;BME280;58547;51.690;5.186;2022-07-21T08:10:57;101762.19;;;18.33;93.49
69037;BME280;58547;51.690;5.186;2022-07-21T08:13:22;101759.94;;;18.40;93.58
69037;BME280;58547;51.690;5.186;2022-07-21T08:15:48;101767.34;;;18.35;93.87
69037;BME280;58547;51.690;5.186;2022-07-21T08:18:15;101763.25;;;18.31;95.15
69037;BME280;58547;51.690;5.186;2022-07-21T08:20:40;101766.63;;;18.33;94.78
69037;BME280;58547;51.690;5.186;2022-07-21T08:23:06;101776.44;;;18.31;95.78
69037;BME280;58547;51.690;5.186;2022-07-21T08:25:32;101771.00;;;18.21;95.83
69037;BME280;58547;51.690;5.186;2022-07-21T08:27:58;101770.78;;;18.24;96.50
69037;BME280;58547;51.690;5.186;2022-07-21T08:30:23;101766.00;;;18.29;95.80
69037;BME280;58547;51.690;5.186;2022-07-21T08:32:48;101769.50;;;18.30;96.34
69037;BME280;58547;51.690;5.186;2022-07-21T08:35:14;101759.31;;;18.36;95.89
69037;BME280;58547;51.690;5.186;2022-07-21T08:37:40;101764.25;;;18.41;96.74
69037;BME280;58547;51.690;5.186;2022-07-21T08:40:07;101780.22;;;18.39;96.25
69037;BME280;58547;51.690;5.186;2022-07-21T08:42:34;101765.00;;;18.43;96.20
69037;BME280;58547;51.690;5.186;2022-07-21T08:44:59;101772.28;;;18.39;96.04
69037;BME280;58547;51.690;5.186;2022-07-21T08:47:26;101776.97;;;18.36;96.54
69037;BME280;58547;51.690;5.186;2022-07-21T08:49:51;101768.47;;;18.44;95.73
69037;BME280;58547;51.690;5.186;2022-07-21T08:52:17;101776.00;;;18.37;96.58
69037;BME280;58547;51.690;5.186;2022-07-21T08:54:43;101772.88;;;18.32;95.89
69037;BME280;58547;51.690;5.186;2022-07-21T08:57:10;101767.28;;;18.24;96.66
69037;BME280;58547;51.690;5.186;2022-07-21T08:59:35;101772.34;;;18.27;97.94
69037;BME280;58547;51.690;5.186;2022-07-21T09:02:01;101770.13;;;18.20;96.84
69037;BME280;58547;51.690;5.186;2022-07-21T09:04:28;101768.47;;;18.19;98.36
69037;BME280;58547;51.690;5.186;2022-07-21T09:06:57;101768.38;;;18.08;98.56
69037;BME280;58547;51.690;5.186;2022-07-21T09:09:24;101776.97;;;17.99;96.70
69037;BME280;58547;51.690;5.186;2022-07-21T09:11:49;101774.75;;;17.93;98.55
69037;BME280;58547;51.690;5.186;2022-07-21T09:14:17;101786.28;;;17.92;98.02
69037;BME280;58547;51.690;5.186;2022-07-21T09:16:56;101778.66;;;18.00;97.95
69037;BME280;58547;51.690;5.186;2022-07-21T09:21:52;101772.22;;;18.04;97.87
69037;BME280;58547;51.690;5.186;2022-07-21T09:24:26;101773.69;;;17.95;96.84
69037;BME280;58547;51.690;5.186;2022-07-21T09:27:12;101781.06;;;18.03;97.12
69037;BME280;58547;51.690;5.186;2022-07-21T09:32:16;101796.03;;;18.15;98.02
69037;BME280;58547;51.690;5.186;2022-07-21T09:34:42;101790.69;;;18.04;97.37
69037;BME280;58547;51.690;5.186;2022-07-21T09:37:08;101800.28;;;18.05;97.26
69037;BME280;58547;51.690;5.186;2022-07-21T09:42:12;101807.81;;;17.86;98.00
69037;BME280;58547;51.690;5.186;2022-07-21T09:44:38;101798.09;;;17.86;99.03
69037;BME280;58547;51.690;5.186;2022-07-21T09:47:11;101812.53;;;17.93;98.31
69037;BME280;58547;51.690;5.186;2022-07-21T09:49:38;101805.38;;;17.95;98.42
69037;BME280;58547;51.690;5.186;2022-07-21T09:52:24;101809.59;;;17.98;96.78
69037;BME280;58547;51.690;5.186;2022-07-21T09:54:52;101819.31;;;17.97;97.01
69037;BME280;58547;51.690;5.186;2022-07-21T09:57:18;101810.34;;;18.00;97.22
69037;BME280;58547;51.690;5.186;2022-07-21T09:59:45;101814.25;;;17.94;96.46
69037;BME280;58547;51.690;5.186;2022-07-21T10:02:25;101816.78;;;17.96;95.96
69037;BME280;58547;51.690;5.186;2022-07-21T10:05:03;101825.16;;;17.90;96.15
69037;BME280;58547;51.690;5.186;2022-07-21T10:07:29;101823.44;;;17.89;97.08
69037;BME280;58547;51.690;5.186;2022-07-21T10:09:56;101839.59;;;17.84;96.37
69037;BME280;58547;51.690;5.186;2022-07-21T10:12:23;101833.13;;;17.75;97.24
69037;BME280;58547;51.690;5.186;2022-07-21T10:14:49;101832.72;;;17.82;97.39
69037;BME280;58547;51.690;5.186;2022-07-21T10:17:16;101828.06;;;17.72;95.94
69037;BME280;58547;51.690;5.186;2022-07-21T10:25:00;101843.38;;;17.80;97.00
69037;BME280;58547;51.690;5.186;2022-07-21T10:27:26;101842.41;;;17.68;96.86
69037;BME280;58547;51.690;5.186;2022-07-21T10:29:56;101846.84;;;17.68;96.86
69037;BME280;58547;51.690;5.186;2022-07-21T10:32:35;101852.78;;;17.71;97.29
69037;BME280;58547;51.690;5.186;2022-07-21T10:35:25;101850.88;;;17.73;96.70
69037;BME280;58547;51.690;5.186;2022-07-21T10:37:50;101854.34;;;17.74;97.06
69037;BME280;58547;51.690;5.186;2022-07-21T10:42:45;101847.63;;;17.83;97.49
69037;BME280;58547;51.690;5.186;2022-07-21T10:45:30;101856.91;;;17.88;96.56
69037;BME280;58547;51.690;5.186;2022-07-21T10:47:56;101854.78;;;17.93;97.33
69037;BME280;58547;51.690;5.186;2022-07-21T10:50:41;101852.28;;;17.92;95.91
69037;BME280;58547;51.690;5.186;2022-07-21T10:53:17;101864.00;;;17.88;94.89
69037;BME280;58547;51.690;5.186;2022-07-21T10:55:47;101850.13;;;17.71;95.75
69037;BME280;58547;51.690;5.186;2022-07-21T10:58:26;101864.16;;;17.72;96.18
69037;BME280;58547;51.690;5.186;2022-07-21T11:03:29;101860.78;;;17.70;96.08
69037;BME280;58547;51.690;5.186;2022-07-21T11:06:15;101860.47;;;17.74;96.07
69037;BME280;58547;51.690;5.186;2022-07-21T11:08:45;101867.44;;;17.75;95.67
69037;BME280;58547;51.690;5.186;2022-07-21T11:11:14;101871.84;;;17.75;97.33
69037;BME280;58547;51.690;5.186;2022-07-21T11:14:12;101870.50;;;17.82;96.10
69037;BME280;58547;51.690;5.186;2022-07-21T11:21:52;101876.09;;;17.65;97.48
69037;BME280;58547;51.690;5.186;2022-07-21T11:24:19;101876.63;;;17.70;97.97
69037;BME280;58547;51.690;5.186;2022-07-21T11:26:53;101883.38;;;17.61;97.93
69037;BME280;58547;51.690;5.186;2022-07-21T11:29:19;101881.88;;;17.57;98.74
69037;BME280;58547;51.690;5.186;2022-07-21T11:31:47;101880.50;;;17.51;98.55
69037;BME280;58547;51.690;5.186;2022-07-21T11:34:13;101889.47;;;17.49;99.59
69037;BME280;58547;51.690;5.186;2022-07-21T11:36:38;101890.84;;;17.54;99.32
69037;BME280;58547;51.690;5.186;2022-07-21T11:39:08;101892.09;;;17.49;98.24
69037;BME280;58547;51.690;5.186;2022-07-21T11:41:35;101897.25;;;17.37;99.11
69037;BME280;58547;51.690;5.186;2022-07-21T11:44:01;101900.31;;;17.31;99.90
69037;BME280;58547;51.690;5.186;2022-07-21T11:46:27;101896.91;;;17.29;100.00
69037;BME280;58547;51.690;5.186;2022-07-21T11:49:05;101889.63;;;17.33;100.00
69037;BME280;58547;51.690;5.186;2022-07-21T11:51:32;101898.28;;;17.35;100.00
69037;BME280;58547;51.690;5.186;2022-07-21T11:53:57;101900.00;;;17.36;100.00
69037;BME280;58547;51.690;5.186;2022-07-21T11:56:23;101899.84;;;17.25;99.97
69037;BME280;58547;51.690;5.186;2022-07-21T11:58:48;101895.03;;;17.31;100.00
69037;BME280;58547;51.690;5.186;2022-07-21T12:01:13;101895.47;;;17.38;98.76
69037;BME280;58547;51.690;5.186;2022-07-21T12:03:51;101886.59;;;17.39;99.49
69037;BME280;58547;51.690;5.186;2022-07-21T12:06:17;101889.03;;;17.42;100.00
69037;BME280;58547;51.690;5.186;2022-07-21T12:08:44;101891.88;;;17.39;100.00
69037;BME280;58547;51.690;5.186;2022-07-21T12:11:10;101891.44;;;17.32;100.00
69037;BME280;58547;51.690;5.186;2022-07-21T12:13:57;101902.19;;;17.29;100.00
69037;BME280;58547;51.690;5.186;2022-07-21T12:16:23;101896.06;;;17.29;100.00
69037;BME280;58547;51.690;5.186;2022-07-21T12:18:49;101900.50;;;17.28;100.00
69037;BME280;58547;51.690;5.186;2022-07-21T12:21:43;101888.47;;;17.37;100.00
69037;BME280;58547;51.690;5.186;2022-07-21T12:24:08;101889.97;;;17.41;100.00
69037;BME280;58547;51.690;5.186;2022-07-21T12:26:33;101900.66;;;17.52;100.00
69037;BME280;58547;51.690;5.186;2022-07-21T12:28:59;101903.00;;;17.57;100.00
69037;BME280;58547;51.690;5.186;2022-07-21T12:31:25;101903.72;;;17.59;100.00
69037;BME280;58547;51.690;5.186;2022-07-21T12:33:52;101905.63;;;17.57;100.00
69037;BME280;58547;51.690;5.186;2022-07-21T12:36:19;101906.78;;;17.53;99.91
69037;BME280;58547;51.690;5.186;2022-07-21T12:38:46;101893.38;;;17.56;100.00
69037;BME280;58547;51.690;5.186;2022-07-21T12:41:15;101912.06;;;17.66;99.46
69037;BME280;58547;51.690;5.186;2022-07-21T12:43:41;101899.50;;;17.56;99.06
69037;BME280;58547;51.690;5.186;2022-07-21T12:46:16;101909.44;;;17.66;100.00
69037;BME280;58547;51.690;5.186;2022-07-21T12:48:45;101912.31;;;17.75;100.00
69037;BME280;58547;51.690;5.186;2022-07-21T12:51:19;101897.31;;;17.63;98.52
69037;BME280;58547;51.690;5.186;2022-07-21T12:53:53;101909.00;;;17.59;99.01
69037;BME280;58547;51.690;5.186;2022-07-21T12:56:25;101899.94;;;17.50;100.00
69037;BME280;58547;51.690;5.186;2022-07-21T12:58:53;101908.88;;;17.48;100.00
69037;BME280;58547;51.690;5.186;2022-07-21T13:01:20;101912.34;;;17.35;100.00
69037;BME280;58547;51.690;5.186;2022-07-21T13:03:45;101908.41;;;17.28;100.00
69037;BME280;58547;51.690;5.186;2022-07-21T13:06:11;101914.44;;;17.30;100.00
69037;BME280;58547;51.690;5.186;2022-07-21T13:08:39;101911.38;;;17.36;100.00
69037;BME280;58547;51.690;5.186;2022-07-21T13:11:05;101917.84;;;17.45;100.00
69037;BME280;58547;51.690;5.186;2022-07-21T13:13:30;101915.84;;;17.49;100.00